Time;durP1;ratioP1;P1;durP2;ratioP2;P2;SDS_P1;SDS_P2;PMS_P1;PMS_P2;Temp;Humidity;BMP_temperature;BMP_pressure;BME280_temperature;BME280_humidity;BME280_pressure;Samples;Min_cycle;Max_cycle;Signal;HPM_P1;HPM_P2
2023/08/18 00:00:07;;;;;;;;;;;19.50;99.90;;;;;;8431465;28;19924;-72
2023/08/18 00:04:09;;;;;;;;;;;19.50;99.90;;;;;;8399639;28;19932;-72
2023/08/18 00:08:11;;;;;;;;;;;19.50;99.90;;;;;;8433142;28;19930;-72
2023/08/18 00:12:12;;;;;;;;;;;19.40;99.90;;;;;;8425592;28;19924;-72
2023/08/18 00:16:14;;;;;;;;;;;19.40;99.90;;;;;;8425652;28;19928;-72
2023/08/18 00:20:16;;;;;;;;;;;19.40;99.90;;;;;;8424644;28;19924;-72
2023/08/18 00:24:17;;;;;;;;;;;19.40;99.90;;;;;;8422150;28;19927;-72
2023/08/18 00:28:19;;;;;;;;;;;19.40;99.90;;;;;;8421421;28;20344;-72
2023/08/18 00:32:20;;;;;;;;;;;19.40;99.90;;;;;;8415699;28;20391;-72
2023/08/18 00:36:22;;;;;;;;;;;19.40;99.90;;;;;;8425872;28;19928;-72
2023/08/18 00:40:24;;;;;;;;;;;19.40;99.90;;;;;;8430883;28;20411;-72
2023/08/18 00:44:26;;;;;;;;;;;19.40;99.90;;;;;;8424848;28;19924;-72
2023/08/18 00:48:27;;;;;;;;;;;19.40;99.90;;;;;;8427225;28;19935;-72
2023/08/18 00:52:29;;;;;;;;;;;19.30;99.90;;;;;;8418244;28;19928;-72
2023/08/18 00:56:31;;;;;;;;;;;19.30;99.90;;;;;;8422782;28;19928;-72
2023/08/18 01:00:33;;;;;;;;;;;19.30;99.90;;;;;;8426963;28;19969;-72
2023/08/18 01:04:35;;;;;;;;;;;19.30;99.90;;;;;;8421695;28;19946;-72
2023/08/18 01:08:36;;;;;;;;;;;19.30;99.90;;;;;;8417721;28;19924;-72
2023/08/18 01:17:45;;;;;;;;;;;19.30;99.90;;;;;;8436822;28;20326;-72
2023/08/18 01:21:49;;;;;;;;;;;19.20;99.90;;;;;;8418943;28;19929;-72
2023/08/18 01:25:51;;;;;;;;;;;19.20;99.90;;;;;;8414129;28;20307;-72
2023/08/18 01:29:52;;;;;;;;;;;19.20;99.90;;;;;;8427530;28;19924;-72
2023/08/18 01:34:14;;;;;;;;;;;19.10;99.90;;;;;;8417704;28;19931;-72
2023/08/18 01:38:18;;;;;;;;;;;19.10;99.90;;;;;;8424058;28;19977;-72
2023/08/18 01:42:20;;;;;;;;;;;19.10;99.90;;;;;;8437646;28;19965;-72
2023/08/18 01:46:22;;;;;;;;;;;19.10;99.90;;;;;;8429535;28;19932;-72
2023/08/18 01:50:24;;;;;;;;;;;19.00;99.90;;;;;;8413441;28;19934;-72
2023/08/18 01:54:25;;;;;;;;;;;19.00;99.90;;;;;;8429805;28;19973;-72
2023/08/18 01:58:27;;;;;;;;;;;19.00;99.90;;;;;;8424924;28;19924;-72
2023/08/18 02:02:29;;;;;;;;;;;19.00;99.90;;;;;;8409503;28;19924;-72
2023/08/18 02:06:31;;;;;;;;;;;18.90;99.90;;;;;;8400033;28;19971;-72
2023/08/18 02:10:33;;;;;;;;;;;18.90;99.90;;;;;;8424176;28;19924;-72
2023/08/18 02:14:36;;;;;;;;;;;18.90;99.90;;;;;;8432419;28;19924;-72
2023/08/18 02:18:38;;;;;;;;;;;18.80;99.90;;;;;;8428316;28;20307;-72
2023/08/18 02:22:39;;;;;;;;;;;18.80;99.90;;;;;;8422085;28;20283;-72
2023/08/18 02:26:41;;;;;;;;;;;18.80;99.90;;;;;;8425737;28;20333;-72
2023/08/18 02:30:43;;;;;;;;;;;18.80;99.90;;;;;;8409942;28;20341;-72
2023/08/18 02:34:45;;;;;;;;;;;18.80;99.90;;;;;;8441463;27;20353;-72
2023/08/18 02:38:47;;;;;;;;;;;18.70;99.90;;;;;;8437463;28;19924;-72
2023/08/18 02:47:52;;;;;;;;;;;18.70;99.90;;;;;;8421829;28;19945;-72
2023/08/18 02:51:53;;;;;;;;;;;18.70;99.90;;;;;;8435649;27;19924;-72
2023/08/18 02:55:55;;;;;;;;;;;18.60;99.90;;;;;;8430233;28;19956;-72
2023/08/18 02:59:57;;;;;;;;;;;18.60;99.90;;;;;;8428972;28;19946;-72
2023/08/18 03:03:58;;;;;;;;;;;18.50;99.90;;;;;;8430201;28;19935;-72
2023/08/18 03:08:00;;;;;;;;;;;18.50;99.90;;;;;;8441022;28;19928;-71
2023/08/18 03:12:02;;;;;;;;;;;18.40;99.90;;;;;;8429772;28;19987;-72
2023/08/18 03:16:04;;;;;;;;;;;18.40;99.90;;;;;;8420546;28;19928;-72
2023/08/18 03:20:07;;;;;;;;;;;18.50;99.90;;;;;;8429636;28;20067;-72
2023/08/18 03:24:09;;;;;;;;;;;18.40;99.90;;;;;;8431169;27;19931;-72
2023/08/18 03:28:11;;;;;;;;;;;18.40;99.90;;;;;;8404948;28;19924;-72
2023/08/18 03:32:13;;;;;;;;;;;18.40;99.90;;;;;;8408535;28;19939;-72
2023/08/18 03:36:14;;;;;;;;;;;18.40;99.90;;;;;;8411628;28;19924;-72
2023/08/18 03:40:16;;;;;;;;;;;18.40;99.90;;;;;;8407619;28;19973;-71
2023/08/18 03:44:18;;;;;;;;;;;18.40;99.90;;;;;;8412729;28;20327;-72
2023/08/18 03:48:19;;;;;;;;;;;18.30;99.90;;;;;;8422981;28;19924;-72
2023/08/18 03:52:21;;;;;;;;;;;18.30;99.90;;;;;;8411929;28;20371;-72
2023/08/18 03:56:23;;;;;;;;;;;18.30;99.90;;;;;;8444022;27;20372;-71
2023/08/18 04:00:25;;;;;;;;;;;18.30;99.90;;;;;;8445916;28;19924;-71
2023/08/18 04:04:26;;;;;;;;;;;18.30;99.90;;;;;;8422036;28;19925;-72
2023/08/18 04:08:28;;;;;;;;;;;18.30;99.90;;;;;;8435429;28;19928;-72
2023/08/18 04:12:30;;;;;;;;;;;18.30;99.90;;;;;;8432157;28;19927;-72
2023/08/18 04:16:32;;;;;;;;;;;18.30;99.90;;;;;;8435389;28;19924;-72
2023/08/18 04:20:35;;;;;;;;;;;18.30;99.90;;;;;;8430728;28;19924;-72
2023/08/18 04:24:37;;;;;;;;;;;18.30;99.90;;;;;;8404932;28;19955;-72
2023/08/18 04:28:38;;;;;;;;;;;18.30;99.90;;;;;;8433949;28;19928;-72
2023/08/18 04:32:41;;;;;;;;;;;18.20;99.90;;;;;;8431843;28;19963;-72
2023/08/18 04:36:42;;;;;;;;;;;18.20;99.90;;;;;;8422681;28;20342;-71
2023/08/18 04:40:44;;;;;;;;;;;18.20;99.90;;;;;;8424819;28;20387;-71
2023/08/18 04:44:46;;;;;;;;;;;18.30;99.90;;;;;;8426044;28;20277;-72
2023/08/18 04:48:47;;;;;;;;;;;18.20;99.90;;;;;;8415039;28;20352;-72
2023/08/18 04:52:49;;;;;;;;;;;18.30;99.90;;;;;;8401047;28;19928;-72
2023/08/18 04:56:56;;;;;;;;;;;18.30;99.90;;;;;;8419731;28;19970;-72
2023/08/18 05:00:59;;;;;;;;;;;18.30;99.90;;;;;;8426626;28;19931;-72
2023/08/18 05:05:01;;;;;;;;;;;18.30;99.90;;;;;;8431626;28;19930;-72
2023/08/18 05:09:05;;;;;;;;;;;18.20;99.90;;;;;;8409109;28;19932;-71
2023/08/18 05:13:07;;;;;;;;;;;18.20;99.90;;;;;;8396638;28;19940;-71
2023/08/18 05:17:08;;;;;;;;;;;18.20;99.90;;;;;;8423976;28;19924;-72
2023/08/18 05:21:10;;;;;;;;;;;18.20;99.90;;;;;;8435511;28;19947;-72
2023/08/18 05:25:13;;;;;;;;;;;18.30;99.90;;;;;;8410776;28;19928;-72
2023/08/18 05:29:16;;;;;;;;;;;18.30;99.90;;;;;;8427364;28;20334;-71
2023/08/18 05:33:18;;;;;;;;;;;18.30;99.90;;;;;;8422392;28;19925;-72
2023/08/18 05:37:20;;;;;;;;;;;18.30;99.90;;;;;;8419491;28;20323;-72
2023/08/18 05:41:21;;;;;;;;;;;18.40;99.90;;;;;;8411107;28;20380;-72
2023/08/18 05:45:25;;;;;;;;;;;18.40;99.90;;;;;;8420345;28;19931;-72
2023/08/18 05:49:27;;;;;;;;;;;18.40;99.90;;;;;;8406898;28;19924;-72
2023/08/18 05:53:30;;;;;;;;;;;18.40;99.90;;;;;;8420808;28;19985;-72
2023/08/18 05:57:32;;;;;;;;;;;18.40;99.90;;;;;;8434894;28;19981;-72
2023/08/18 06:01:34;;;;;;;;;;;18.40;99.90;;;;;;8422494;28;19932;-71
2023/08/18 06:05:36;;;;;;;;;;;18.50;99.90;;;;;;8429703;28;19924;-72
2023/08/18 06:09:37;;;;;;;;;;;18.50;99.90;;;;;;8426857;28;19928;-72
2023/08/18 06:13:39;;;;;;;;;;;18.50;99.90;;;;;;8426040;28;19924;-71
2023/08/18 06:17:41;;;;;;;;;;;18.60;99.90;;;;;;8435581;28;20398;-71
2023/08/18 06:21:43;;;;;;;;;;;18.60;99.90;;;;;;8409302;28;20391;-72
2023/08/18 06:25:44;;;;;;;;;;;18.60;99.90;;;;;;8421886;28;20375;-72
2023/08/18 06:29:46;;;;;;;;;;;18.50;99.90;;;;;;8429420;28;20379;-72
2023/08/18 06:33:48;;;;;;;;;;;18.50;99.90;;;;;;8450608;28;19924;-72
2023/08/18 06:37:49;;;;;;;;;;;18.50;99.90;;;;;;8436232;28;19928;-71
2023/08/18 06:41:51;;;;;;;;;;;18.50;99.90;;;;;;8429332;28;19924;-72
2023/08/18 06:45:52;;;;;;;;;;;18.60;99.90;;;;;;8440284;28;19923;-71
2023/08/18 06:49:54;;;;;;;;;;;18.70;99.90;;;;;;8434314;28;20348;-72
2023/08/18 06:53:56;;;;;;;;;;;18.70;99.90;;;;;;8441326;28;19998;-72
2023/08/18 06:57:57;;;;;;;;;;;18.80;99.90;;;;;;8412969;28;19931;-72
2023/08/18 07:01:59;;;;;;;;;;;18.90;99.90;;;;;;8399091;28;19925;-72
2023/08/18 07:06:01;;;;;;;;;;;19.00;99.90;;;;;;8407291;28;24584;-72
2023/08/18 07:10:03;;;;;;;;;;;19.00;99.90;;;;;;8399539;28;19951;-72
2023/08/18 07:14:05;;;;;;;;;;;19.10;99.90;;;;;;8410673;27;20380;-72
2023/08/18 07:18:07;;;;;;;;;;;19.10;99.90;;;;;;8401894;28;19954;-72
2023/08/18 07:22:09;;;;;;;;;;;19.20;99.90;;;;;;8396956;28;19924;-72
2023/08/18 07:26:10;;;;;;;;;;;19.20;99.90;;;;;;8389436;28;19956;-72
2023/08/18 07:30:12;;;;;;;;;;;19.30;99.90;;;;;;8399465;28;19924;-72
2023/08/18 07:34:14;;;;;;;;;;;19.30;99.90;;;;;;8400649;28;20395;-73
2023/08/18 07:38:17;;;;;;;;;;;19.30;99.90;;;;;;8396706;28;20184;-73
2023/08/18 07:42:19;;;;;;;;;;;19.40;99.90;;;;;;8391576;28;19992;-73
2023/08/18 07:46:20;;;;;;;;;;;19.50;99.90;;;;;;8397889;28;20299;-72
2023/08/18 07:50:22;;;;;;;;;;;19.60;99.90;;;;;;8411815;28;24276;-72
2023/08/18 07:54:24;;;;;;;;;;;19.70;99.90;;;;;;8399741;28;19929;-72
2023/08/18 07:58:25;;;;;;;;;;;19.80;99.90;;;;;;8396171;28;20372;-72
2023/08/18 08:02:27;;;;;;;;;;;19.80;99.90;;;;;;8393991;28;19974;-73
2023/08/18 08:06:30;;;;;;;;;;;19.80;99.90;;;;;;8386395;28;19932;-72
2023/08/18 08:10:34;;;;;;;;;;;19.80;99.90;;;;;;8396827;28;20608;-72
2023/08/18 08:14:35;;;;;;;;;;;19.90;99.90;;;;;;8395204;28;20284;-72
2023/08/18 08:18:37;;;;;;;;;;;19.90;99.90;;;;;;8400921;27;19924;-72
2023/08/18 08:22:39;;;;;;;;;;;20.00;99.90;;;;;;8388190;28;19928;-72
2023/08/18 08:26:43;;;;;;;;;;;20.10;99.90;;;;;;8397339;28;19933;-72
2023/08/18 08:30:45;;;;;;;;;;;20.10;99.90;;;;;;8410321;28;20300;-72
2023/08/18 08:34:47;;;;;;;;;;;20.10;99.90;;;;;;8392600;28;19929;-72
2023/08/18 08:38:49;;;;;;;;;;;20.20;99.90;;;;;;8398653;28;19925;-72
2023/08/18 08:42:56;;;;;;;;;;;20.30;99.90;;;;;;8395319;28;19932;-72
2023/08/18 08:47:05;;;;;;;;;;;20.30;99.90;;;;;;8398561;28;20499;-72
2023/08/18 08:51:09;;;;;;;;;;;20.40;99.90;;;;;;8398604;28;19929;-72
2023/08/18 08:55:12;;;;;;;;;;;20.50;99.90;;;;;;8398657;28;19933;-71
2023/08/18 08:59:15;;;;;;;;;;;20.50;99.90;;;;;;8390779;28;19970;-72
2023/08/18 09:03:18;;;;;;;;;;;20.70;99.90;;;;;;8386358;28;19924;-72
2023/08/18 09:07:20;;;;;;;;;;;20.80;99.90;;;;;;8400395;28;19936;-72
2023/08/18 09:11:45;;;;;;;;;;;21.00;99.90;;;;;;8394712;28;19925;-72
2023/08/18 09:15:47;;;;;;;;;;;21.00;99.90;;;;;;8396178;28;19936;-72
2023/08/18 09:19:49;;;;;;;;;;;21.10;99.90;;;;;;8408159;28;19983;-72
2023/08/18 09:23:55;;;;;;;;;;;21.20;99.90;;;;;;8400076;28;19932;-72
2023/08/18 09:27:57;;;;;;;;;;;21.30;99.90;;;;;;8392700;28;19931;-72
2023/08/18 09:31:58;;;;;;;;;;;21.40;99.90;;;;;;8393288;28;19932;-72
2023/08/18 09:36:00;;;;;;;;;;;21.40;99.90;;;;;;8403509;28;20465;-72
2023/08/18 09:40:02;;;;;;;;;;;21.50;99.90;;;;;;8396058;28;19928;-73
2023/08/18 09:44:04;;;;;;;;;;;21.60;99.90;;;;;;8393311;28;19932;-72
2023/08/18 09:48:09;;;;;;;;;;;21.70;99.90;;;;;;8394789;28;19978;-72
2023/08/18 09:52:12;;;;;;;;;;;21.70;99.90;;;;;;8405765;28;19924;-72
2023/08/18 09:56:14;;;;;;;;;;;21.80;99.90;;;;;;8407676;28;19973;-72
2023/08/18 10:00:17;;;;;;;;;;;21.80;99.90;;;;;;8395160;28;19929;-72
2023/08/18 10:04:23;;;;;;;;;;;21.80;99.90;;;;;;8390340;28;19931;-72
2023/08/18 10:08:25;;;;;;;;;;;21.80;99.90;;;;;;8391056;28;19978;-72
2023/08/18 10:12:27;;;;;;;;;;;21.80;99.90;;;;;;8389101;28;19931;-72
2023/08/18 10:16:30;;;;;;;;;;;21.90;99.90;;;;;;8388779;28;19931;-73
2023/08/18 10:20:32;;;;;;;;;;;22.00;99.90;;;;;;8392389;28;19982;-72
2023/08/18 10:24:36;;;;;;;;;;;22.20;99.90;;;;;;8392647;28;19929;-72
2023/08/18 10:28:39;;;;;;;;;;;22.30;99.90;;;;;;8376861;28;20283;-72
2023/08/18 10:32:41;;;;;;;;;;;22.30;99.90;;;;;;8394047;28;20269;-72
2023/08/18 10:36:43;;;;;;;;;;;22.30;99.90;;;;;;8391819;28;19956;-72
2023/08/18 10:40:45;;;;;;;;;;;22.40;99.90;;;;;;8377670;28;19982;-72
2023/08/18 10:44:57;;;;;;;;;;;22.50;99.90;;;;;;8389593;28;19948;-73
2023/08/18 10:48:59;;;;;;;;;;;22.60;99.90;;;;;;8395725;28;19925;-72
2023/08/18 10:53:03;;;;;;;;;;;22.60;99.90;;;;;;8397641;28;19959;-72
2023/08/18 10:57:04;;;;;;;;;;;22.60;99.90;;;;;;8400164;28;20335;-72
2023/08/18 11:01:08;;;;;;;;;;;22.60;99.90;;;;;;8398647;28;20299;-72
2023/08/18 11:05:10;;;;;;;;;;;22.70;99.90;;;;;;8399310;28;19986;-73
2023/08/18 11:09:12;;;;;;;;;;;22.70;99.90;;;;;;8389697;28;19925;-73
2023/08/18 11:13:24;;;;;;;;;;;22.60;99.90;;;;;;8402653;28;19928;-73
2023/08/18 11:17:26;;;;;;;;;;;22.70;99.90;;;;;;8399081;28;19943;-72
2023/08/18 11:21:27;;;;;;;;;;;22.80;99.90;;;;;;8393386;28;19985;-72
2023/08/18 11:25:30;;;;;;;;;;;22.90;99.90;;;;;;8396928;28;19933;-72
2023/08/18 11:29:32;;;;;;;;;;;23.00;99.90;;;;;;8392302;28;19924;-72
2023/08/18 11:33:34;;;;;;;;;;;23.10;99.90;;;;;;8401015;28;19928;-72
2023/08/18 11:37:40;;;;;;;;;;;23.10;99.90;;;;;;8402582;28;19924;-72
2023/08/18 11:41:42;;;;;;;;;;;23.20;99.90;;;;;;8405694;28;19939;-72
2023/08/18 11:45:44;;;;;;;;;;;23.30;99.90;;;;;;8399704;28;19925;-72
2023/08/18 11:49:46;;;;;;;;;;;23.30;99.90;;;;;;8399259;28;24307;-72
2023/08/18 11:53:47;;;;;;;;;;;23.40;99.90;;;;;;8395017;28;20304;-73
2023/08/18 11:57:49;;;;;;;;;;;23.50;99.90;;;;;;8410592;28;20334;-72
2023/08/18 12:01:55;;;;;;;;;;;23.60;99.90;;;;;;8396886;28;19924;-72
2023/08/18 12:05:58;;;;;;;;;;;23.70;99.90;;;;;;8400842;28;20292;-72
2023/08/18 12:09:59;;;;;;;;;;;23.70;99.90;;;;;;8396805;28;20360;-72
2023/08/18 12:14:03;;;;;;;;;;;23.80;99.90;;;;;;8391276;28;19947;-72
2023/08/18 12:18:05;;;;;;;;;;;23.90;99.90;;;;;;8394421;28;19936;-72
2023/08/18 12:22:07;;;;;;;;;;;24.00;99.90;;;;;;8396018;28;19980;-73
2023/08/18 12:26:10;;;;;;;;;;;24.00;99.90;;;;;;8399628;28;19985;-72
2023/08/18 12:30:12;;;;;;;;;;;24.10;99.90;;;;;;8393310;28;19925;-72
2023/08/18 12:34:14;;;;;;;;;;;24.20;99.90;;;;;;8408061;28;19924;-72
2023/08/18 12:38:16;;;;;;;;;;;24.30;99.90;;;;;;8395530;28;20383;-73
2023/08/18 12:42:17;;;;;;;;;;;24.30;99.90;;;;;;8394453;28;19924;-73
2023/08/18 12:46:19;;;;;;;;;;;24.40;99.90;;;;;;8390457;28;20028;-72
2023/08/18 12:50:21;;;;;;;;;;;24.50;99.90;;;;;;8391701;28;19980;-73
2023/08/18 12:54:23;;;;;;;;;;;24.50;99.90;;;;;;8395810;28;19925;-73
2023/08/18 12:58:24;;;;;;;;;;;24.60;99.90;;;;;;8391221;28;19932;-73
2023/08/18 13:02:26;;;;;;;;;;;24.60;99.90;;;;;;8392234;28;19947;-73
2023/08/18 13:06:27;;;;;;;;;;;24.70;99.90;;;;;;8393143;28;19932;-72
2023/08/18 13:10:29;;;;;;;;;;;24.70;99.90;;;;;;8392464;28;19925;-72
2023/08/18 13:14:33;;;;;;;;;;;24.80;99.90;;;;;;8387519;28;19932;-72
2023/08/18 13:18:35;;;;;;;;;;;24.80;99.90;;;;;;8389006;28;19936;-72
2023/08/18 13:22:42;;;;;;;;;;;24.80;99.90;;;;;;8401420;28;20407;-72
2023/08/18 13:26:44;;;;;;;;;;;24.70;99.90;;;;;;8391469;28;19939;-72
2023/08/18 13:30:45;;;;;;;;;;;24.70;99.90;;;;;;8391722;28;19925;-72
2023/08/18 13:34:47;;;;;;;;;;;24.70;99.90;;;;;;8389369;28;20392;-72
2023/08/18 13:38:49;;;;;;;;;;;24.80;99.90;;;;;;8395262;28;20276;-72
2023/08/18 13:42:52;;;;;;;;;;;24.90;99.90;;;;;;8400600;28;20414;-73
2023/08/18 13:46:53;;;;;;;;;;;25.00;99.90;;;;;;8389739;28;19986;-73
2023/08/18 13:50:55;;;;;;;;;;;25.00;99.90;;;;;;8393545;28;20260;-73
2023/08/18 13:54:57;;;;;;;;;;;25.10;99.90;;;;;;8397959;28;20371;-73
2023/08/18 13:58:59;;;;;;;;;;;25.20;99.90;;;;;;8392795;28;19924;-73
2023/08/18 14:03:01;;;;;;;;;;;25.20;99.90;;;;;;8396032;28;19946;-74
2023/08/18 14:07:03;;;;;;;;;;;25.20;99.90;;;;;;8375422;28;19924;-73
2023/08/18 14:11:05;;;;;;;;;;;25.30;99.90;;;;;;8403511;28;19924;-73
2023/08/18 14:15:07;;;;;;;;;;;25.30;99.90;;;;;;8390322;28;19924;-74
2023/08/18 14:19:09;;;;;;;;;;;25.40;99.90;;;;;;8392842;28;19932;-73
2023/08/18 14:23:10;;;;;;;;;;;25.50;99.90;;;;;;8393754;28;19974;-72
2023/08/18 14:27:12;;;;;;;;;;;25.50;99.90;;;;;;8395313;28;20266;-73
2023/08/18 14:31:14;;;;;;;;;;;25.60;99.90;;;;;;8396735;28;19932;-73
2023/08/18 14:35:15;;;;;;;;;;;25.70;99.90;;;;;;8422918;27;19961;-72
2023/08/18 14:39:17;;;;;;;;;;;25.70;99.90;;;;;;8389515;28;19925;-73
2023/08/18 14:43:19;;;;;;;;;;;25.80;99.90;;;;;;8423137;27;19939;-73
2023/08/18 14:47:20;;;;;;;;;;;25.80;99.90;;;;;;8405076;28;19924;-73
2023/08/18 14:51:22;;;;;;;;;;;25.80;99.90;;;;;;8391563;28;19962;-73
2023/08/18 14:55:24;;;;;;;;;;;25.90;99.90;;;;;;8393499;28;19928;-73
2023/08/18 14:59:25;;;;;;;;;;;25.90;99.90;;;;;;8398891;28;19929;-73
2023/08/18 15:03:27;;;;;;;;;;;25.80;99.90;;;;;;8398856;28;19955;-73
2023/08/18 15:07:29;;;;;;;;;;;25.80;99.90;;;;;;8409741;27;19932;-73
2023/08/18 15:11:30;;;;;;;;;;;25.80;99.90;;;;;;8397572;28;19928;-73
2023/08/18 15:15:32;;;;;;;;;;;25.80;99.90;;;;;;8407343;27;19924;-73
2023/08/18 15:19:34;;;;;;;;;;;25.90;99.90;;;;;;8395315;28;19932;-73
2023/08/18 15:23:35;;;;;;;;;;;26.10;99.90;;;;;;8394229;28;20395;-73
2023/08/18 15:27:42;;;;;;;;;;;26.20;99.90;;;;;;8392220;28;19935;-73
2023/08/18 15:31:43;;;;;;;;;;;26.30;99.90;;;;;;8397507;28;21083;-73
2023/08/18 15:35:45;;;;;;;;;;;26.40;99.90;;;;;;8389033;28;19932;-73
2023/08/18 15:39:48;;;;;;;;;;;26.40;99.90;;;;;;8398115;28;19932;-73
2023/08/18 15:43:49;;;;;;;;;;;26.50;99.90;;;;;;8391888;28;19938;-73
2023/08/18 15:47:51;;;;;;;;;;;26.50;99.90;;;;;;8390436;28;20437;-72
2023/08/18 15:51:53;;;;;;;;;;;26.40;99.90;;;;;;8392320;28;20292;-72
2023/08/18 15:55:54;;;;;;;;;;;26.40;99.90;;;;;;8396932;28;20360;-72
2023/08/18 15:59:57;;;;;;;;;;;26.30;99.90;;;;;;8393543;28;19928;-73
2023/08/18 16:03:59;;;;;;;;;;;26.20;99.90;;;;;;8382448;28;19939;-73
2023/08/18 16:08:00;;;;;;;;;;;26.20;99.90;;;;;;8393859;28;19932;-73
2023/08/18 16:12:02;;;;;;;;;;;26.20;99.90;;;;;;8391040;28;19975;-73
2023/08/18 16:16:04;;;;;;;;;;;26.20;99.90;;;;;;8381868;28;19967;-72
2023/08/18 16:20:08;;;;;;;;;;;26.40;99.90;;;;;;8389604;28;19927;-73
2023/08/18 16:24:09;;;;;;;;;;;26.50;99.90;;;;;;8399137;28;19928;-73
2023/08/18 16:28:11;;;;;;;;;;;26.60;99.90;;;;;;8404814;28;20400;-73
2023/08/18 16:32:15;;;;;;;;;;;26.60;99.90;;;;;;8418292;27;19939;-73
2023/08/18 16:36:17;;;;;;;;;;;26.50;99.90;;;;;;8382653;28;19931;-74
2023/08/18 16:40:18;;;;;;;;;;;26.40;99.90;;;;;;8398202;28;21119;-74
2023/08/18 16:44:20;;;;;;;;;;;26.20;99.90;;;;;;8408023;28;19931;-72
2023/08/18 16:48:23;;;;;;;;;;;26.10;99.90;;;;;;8386363;28;19931;-73
2023/08/18 16:52:24;;;;;;;;;;;26.00;99.90;;;;;;8398590;28;19936;-72
2023/08/18 16:56:26;;;;;;;;;;;25.90;99.90;;;;;;8385486;28;20439;-73
2023/08/18 17:00:28;;;;;;;;;;;25.90;99.90;;;;;;8395785;28;19976;-72
2023/08/18 17:04:32;;;;;;;;;;;25.80;99.90;;;;;;8395674;28;20436;-73
2023/08/18 17:08:33;;;;;;;;;;;25.80;99.90;;;;;;8399766;28;19936;-73
2023/08/18 17:12:35;;;;;;;;;;;25.90;99.90;;;;;;8394649;28;20338;-73
2023/08/18 17:16:37;;;;;;;;;;;26.10;99.90;;;;;;8383132;28;19924;-73
2023/08/18 17:20:42;;;;;;;;;;;26.30;99.90;;;;;;8394417;28;20550;-73
2023/08/18 17:24:43;;;;;;;;;;;26.40;99.90;;;;;;8392718;28;20269;-73
2023/08/18 17:28:45;;;;;;;;;;;26.50;99.90;;;;;;8397305;28;19933;-73
2023/08/18 17:32:47;;;;;;;;;;;26.60;99.90;;;;;;8392318;28;19928;-73
2023/08/18 17:36:48;;;;;;;;;;;26.60;99.90;;;;;;8375142;28;19924;-72
2023/08/18 17:40:50;;;;;;;;;;;26.60;99.90;;;;;;8397463;28;19925;-72
2023/08/18 17:44:52;;;;;;;;;;;26.50;99.90;;;;;;8393393;28;19932;-73
2023/08/18 17:48:54;;;;;;;;;;;26.50;99.90;;;;;;8392595;28;20450;-73
2023/08/18 17:52:56;;;;;;;;;;;26.40;99.90;;;;;;8396314;28;19929;-73
2023/08/18 17:56:58;;;;;;;;;;;26.30;99.90;;;;;;8391399;28;19924;-72
2023/08/18 18:01:00;;;;;;;;;;;26.20;99.90;;;;;;8398983;28;19928;-73
2023/08/18 18:05:02;;;;;;;;;;;26.00;99.90;;;;;;8398267;28;20365;-72
2023/08/18 18:09:03;;;;;;;;;;;26.00;99.90;;;;;;8380963;28;19931;-73
2023/08/18 18:13:05;;;;;;;;;;;25.90;99.90;;;;;;8400816;28;19928;-73
2023/08/18 18:17:07;;;;;;;;;;;25.80;99.90;;;;;;8393664;28;20272;-72
2023/08/18 18:21:10;;;;;;;;;;;25.80;99.90;;;;;;8391275;28;19977;-72
2023/08/18 18:25:11;;;;;;;;;;;25.70;99.90;;;;;;8403669;28;19970;-73
2023/08/18 18:29:13;;;;;;;;;;;25.70;99.90;;;;;;8400713;28;19932;-73
2023/08/18 18:33:15;;;;;;;;;;;25.60;99.90;;;;;;8399564;28;20436;-73
2023/08/18 18:37:17;;;;;;;;;;;25.60;99.90;;;;;;8398170;28;20584;-73
2023/08/18 18:41:18;;;;;;;;;;;25.50;99.90;;;;;;8417473;27;19932;-73
2023/08/18 18:45:20;;;;;;;;;;;25.40;99.90;;;;;;8415151;27;19971;-73
2023/08/18 18:49:22;;;;;;;;;;;25.30;99.90;;;;;;8374821;28;20433;-73
2023/08/18 18:53:24;;;;;;;;;;;25.30;99.90;;;;;;8399093;28;19931;-73
2023/08/18 18:57:27;;;;;;;;;;;25.20;99.90;;;;;;8391941;28;19928;-73
2023/08/18 19:01:29;;;;;;;;;;;25.20;99.90;;;;;;8395033;28;19931;-73
2023/08/18 19:05:35;;;;;;;;;;;25.20;99.90;;;;;;8399250;28;20058;-73
2023/08/18 19:09:37;;;;;;;;;;;25.20;99.90;;;;;;8414756;27;19924;-73
2023/08/18 19:13:38;;;;;;;;;;;25.10;99.90;;;;;;8401837;28;19929;-72
2023/08/18 19:17:40;;;;;;;;;;;25.10;99.90;;;;;;8407502;27;19936;-73
2023/08/18 19:21:42;;;;;;;;;;;25.00;99.90;;;;;;8399357;28;20009;-73
2023/08/18 19:25:43;;;;;;;;;;;24.90;99.90;;;;;;8397790;28;19990;-72
2023/08/18 19:29:47;;;;;;;;;;;24.90;99.90;;;;;;8397308;28;20542;-72
2023/08/18 19:33:48;;;;;;;;;;;24.80;99.90;;;;;;8393613;28;19924;-73
2023/08/18 19:37:50;;;;;;;;;;;24.80;99.90;;;;;;8400136;28;19932;-73
2023/08/18 19:41:52;;;;;;;;;;;24.80;99.90;;;;;;8386088;28;19924;-73
2023/08/18 19:45:57;;;;;;;;;;;24.70;99.90;;;;;;8390794;28;19932;-72
2023/08/18 19:50:00;;;;;;;;;;;24.70;99.90;;;;;;8396737;28;19928;-73
2023/08/18 19:54:03;;;;;;;;;;;24.60;99.90;;;;;;8395225;28;19928;-73
2023/08/18 19:58:05;;;;;;;;;;;24.50;99.90;;;;;;8396869;28;20406;-72
2023/08/18 20:02:06;;;;;;;;;;;24.40;99.90;;;;;;8401178;28;20334;-72
2023/08/18 20:06:08;;;;;;;;;;;24.30;99.90;;;;;;8396813;28;19951;-73
2023/08/18 20:10:10;;;;;;;;;;;24.20;99.90;;;;;;8388707;28;19940;-72
2023/08/18 20:14:12;;;;;;;;;;;24.20;99.90;;;;;;8396075;28;20434;-73
2023/08/18 20:18:14;;;;;;;;;;;24.10;99.90;;;;;;8411023;28;19928;-72
2023/08/18 20:22:16;;;;;;;;;;;24.00;99.90;;;;;;8393459;28;19928;-74
2023/08/18 20:26:18;;;;;;;;;;;24.00;99.90;;;;;;8390120;28;19936;-72
2023/08/18 20:30:20;;;;;;;;;;;24.00;99.90;;;;;;8395687;28;19939;-73
2023/08/18 20:34:21;;;;;;;;;;;24.00;99.90;;;;;;8399653;28;19939;-73
2023/08/18 20:38:23;;;;;;;;;;;24.00;99.90;;;;;;8394474;28;19932;-72
2023/08/18 20:42:25;;;;;;;;;;;24.00;99.90;;;;;;8398271;28;19928;-73
2023/08/18 20:46:26;;;;;;;;;;;24.00;99.90;;;;;;8407436;28;19938;-72
2023/08/18 20:50:28;;;;;;;;;;;24.00;99.90;;;;;;8405177;28;19979;-73
2023/08/18 20:54:30;;;;;;;;;;;23.90;99.90;;;;;;8390691;28;19935;-73
2023/08/18 20:58:32;;;;;;;;;;;23.90;99.90;;;;;;8388769;28;19932;-72
2023/08/18 21:02:34;;;;;;;;;;;23.80;99.90;;;;;;8400261;28;19924;-72
2023/08/18 21:06:36;;;;;;;;;;;23.80;99.90;;;;;;8419736;28;19928;-72
2023/08/18 21:10:38;;;;;;;;;;;23.80;99.90;;;;;;8400350;28;19982;-73
2023/08/18 21:14:39;;;;;;;;;;;23.80;99.90;;;;;;8417298;28;19962;-73
2023/08/18 21:18:41;;;;;;;;;;;23.70;99.90;;;;;;8431442;27;20393;-73
2023/08/18 21:22:44;;;;;;;;;;;23.70;99.90;;;;;;8423083;28;19924;-72
2023/08/18 21:26:46;;;;;;;;;;;23.60;99.90;;;;;;8415124;28;19935;-73
2023/08/18 21:31:19;;;;;;;;;;;23.50;99.90;;;;;;8423831;28;20028;-73
2023/08/18 21:35:21;;;;;;;;;;;23.50;99.90;;;;;;8429533;28;19928;-72
2023/08/18 21:39:22;;;;;;;;;;;23.50;99.90;;;;;;8426072;28;19936;-72
2023/08/18 21:43:25;;;;;;;;;;;23.50;99.90;;;;;;8421194;28;19970;-72
2023/08/18 21:47:27;;;;;;;;;;;23.50;99.90;;;;;;8430133;28;20394;-72
2023/08/18 21:51:28;;;;;;;;;;;23.50;99.90;;;;;;8415908;28;20346;-72
2023/08/18 21:55:30;;;;;;;;;;;23.50;99.90;;;;;;8411747;28;19970;-72
2023/08/18 21:59:32;;;;;;;;;;;23.50;99.90;;;;;;8417988;28;19924;-72
2023/08/18 22:13:40;;;;;;;;;;;23.70;99.90;;;;;;8407578;28;19923;-73
2023/08/18 22:17:43;;;;;;;;;;;23.70;99.90;;;;;;8384494;28;19924;-72
2023/08/18 22:21:45;;;;;;;;;;;23.70;99.90;;;;;;8420282;28;20284;-72
2023/08/18 22:25:47;;;;;;;;;;;23.70;99.90;;;;;;8396977;28;19928;-72
2023/08/18 22:29:48;;;;;;;;;;;23.70;99.90;;;;;;8416793;28;20398;-73
2023/08/18 22:33:50;;;;;;;;;;;23.70;99.90;;;;;;8422994;28;20038;-72
2023/08/18 22:37:51;;;;;;;;;;;23.70;99.90;;;;;;8411644;28;19931;-72
2023/08/18 22:41:53;;;;;;;;;;;23.70;99.90;;;;;;8408495;28;19931;-72
2023/08/18 22:45:55;;;;;;;;;;;23.80;99.90;;;;;;8420247;28;20256;-72
2023/08/18 22:49:57;;;;;;;;;;;23.80;99.90;;;;;;8424537;28;20110;-72
2023/08/18 22:53:58;;;;;;;;;;;23.80;99.90;;;;;;8432897;28;19923;-73
2023/08/18 22:58:00;;;;;;;;;;;23.80;99.90;;;;;;8426609;28;20380;-72
2023/08/18 23:02:02;;;;;;;;;;;23.80;99.90;;;;;;8418532;28;19925;-72
2023/08/18 23:06:04;;;;;;;;;;;23.80;99.90;;;;;;8422380;28;19928;-72
2023/08/18 23:10:07;;;;;;;;;;;23.90;99.90;;;;;;8419403;28;19935;-72
2023/08/18 23:14:08;;;;;;;;;;;23.90;99.90;;;;;;8404316;28;19924;-73
2023/08/18 23:18:12;;;;;;;;;;;23.90;99.90;;;;;;8412859;28;19930;-72
2023/08/18 23:22:13;;;;;;;;;;;23.90;99.90;;;;;;8422641;28;19982;-72
2023/08/18 23:26:15;;;;;;;;;;;23.90;99.90;;;;;;8412544;28;20437;-72
2023/08/18 23:30:17;;;;;;;;;;;23.90;99.90;;;;;;8424086;28;19931;-72
2023/08/18 23:34:20;;;;;;;;;;;23.90;99.90;;;;;;8402769;28;20548;-73
2023/08/18 23:38:21;;;;;;;;;;;23.90;99.90;;;;;;8402511;28;19924;-73
2023/08/18 23:42:23;;;;;;;;;;;23.90;99.90;;;;;;8421253;28;19928;-72
2023/08/18 23:46:25;;;;;;;;;;;23.90;99.90;;;;;;8415778;28;19931;-72